Time;durP1;ratioP1;P1;durP2;ratioP2;P2;SDS_P1;SDS_P2;PMS_P1;PMS_P2;Temp;Humidity;BMP_temperature;BMP_pressure;BME280_temperature;BME280_humidity;BME280_pressure;Samples;Min_cycle;Max_cycle;Signal;HPM_P1;HPM_P2
2023/12/18 00:01:24;;;;;;;;;;;7.90;99.90;;;;;;5023977;28;19982;-88
2023/12/18 00:03:50;;;;;;;;;;;7.90;99.90;;;;;;5036367;28;19924;-86
2023/12/18 00:06:15;;;;;;;;;;;7.90;99.90;;;;;;5051035;28;19940;-85
2023/12/18 00:08:41;;;;;;;;;;;7.80;99.90;;;;;;5020306;28;19983;-86
2023/12/18 00:11:06;;;;;;;;;;;7.90;99.90;;;;;;5032468;28;19931;-88
2023/12/18 00:13:32;;;;;;;;;;;7.90;99.90;;;;;;5032415;28;20383;-88
2023/12/18 00:15:58;;;;;;;;;;;7.80;99.90;;;;;;5068311;28;20464;-86
2023/12/18 00:18:23;;;;;;;;;;;7.80;99.90;;;;;;5047178;28;20417;-86
2023/12/18 00:20:50;;;;;;;;;;;7.80;99.90;;;;;;5029922;28;20007;-87
2023/12/18 00:23:16;;;;;;;;;;;7.80;99.90;;;;;;5029358;28;19971;-86
2023/12/18 00:25:43;;;;;;;;;;;7.80;99.90;;;;;;5058702;28;19961;-85
2023/12/18 00:28:08;;;;;;;;;;;7.80;99.90;;;;;;5055237;28;19974;-86
2023/12/18 00:30:34;;;;;;;;;;;7.80;99.90;;;;;;5054111;28;19921;-87
2023/12/18 00:33:00;;;;;;;;;;;7.80;99.90;;;;;;5065657;28;20011;-85
2023/12/18 00:35:26;;;;;;;;;;;7.70;99.90;;;;;;5036582;28;19932;-85
2023/12/18 00:37:51;;;;;;;;;;;7.80;99.90;;;;;;5031896;28;20023;-85
2023/12/18 00:40:17;;;;;;;;;;;7.70;99.90;;;;;;5050823;28;20538;-86
2023/12/18 00:42:43;;;;;;;;;;;7.80;99.90;;;;;;5057316;28;19932;-87
2023/12/18 00:45:08;;;;;;;;;;;7.70;99.90;;;;;;5033658;28;19925;-87
2023/12/18 00:47:34;;;;;;;;;;;7.80;99.90;;;;;;5018261;28;19920;-88
2023/12/18 00:50:00;;;;;;;;;;;7.80;99.90;;;;;;5018580;28;19920;-88
2023/12/18 00:52:25;;;;;;;;;;;7.80;99.90;;;;;;5018359;28;19935;-88
2023/12/18 00:54:51;;;;;;;;;;;7.80;99.90;;;;;;5029239;28;19931;-88
2023/12/18 00:57:16;;;;;;;;;;;7.80;99.90;;;;;;5049980;28;19969;-87
2023/12/18 00:59:42;;;;;;;;;;;7.80;99.90;;;;;;5048709;28;20029;-86
2023/12/18 01:02:08;;;;;;;;;;;7.80;99.90;;;;;;5016810;28;19924;-88
2023/12/18 01:04:35;;;;;;;;;;;7.80;99.90;;;;;;5031454;28;20317;-88
2023/12/18 01:07:00;;;;;;;;;;;7.80;99.90;;;;;;5028366;28;19927;-87
2023/12/18 01:09:26;;;;;;;;;;;7.80;99.90;;;;;;5048169;28;19924;-88
2023/12/18 01:11:52;;;;;;;;;;;7.80;99.90;;;;;;5020419;28;19921;-88
2023/12/18 01:14:17;;;;;;;;;;;7.80;99.90;;;;;;5029297;28;19920;-87
2023/12/18 01:16:43;;;;;;;;;;;7.80;99.90;;;;;;5018146;28;19928;-87
2023/12/18 01:19:08;;;;;;;;;;;7.80;99.90;;;;;;5020828;28;20220;-87
2023/12/18 01:21:34;;;;;;;;;;;7.80;99.90;;;;;;5025728;28;19921;-88
2023/12/18 01:24:00;;;;;;;;;;;7.80;99.90;;;;;;5031126;28;20261;-87
2023/12/18 01:26:25;;;;;;;;;;;7.80;99.90;;;;;;5050058;28;19920;-87
2023/12/18 01:28:51;;;;;;;;;;;7.90;99.90;;;;;;5036381;28;20167;-87
2023/12/18 01:31:20;;;;;;;;;;;7.90;99.90;;;;;;5041946;28;19979;-88
2023/12/18 01:33:46;;;;;;;;;;;7.80;99.90;;;;;;5018108;28;19928;-87
2023/12/18 01:36:11;;;;;;;;;;;7.80;99.90;;;;;;5026319;28;19981;-88
2023/12/18 01:38:37;;;;;;;;;;;7.80;99.90;;;;;;5042595;28;19920;-87
2023/12/18 01:41:02;;;;;;;;;;;7.90;99.90;;;;;;5049408;28;19935;-87
2023/12/18 01:43:28;;;;;;;;;;;7.90;99.90;;;;;;5027998;28;20019;-88
2023/12/18 01:45:55;;;;;;;;;;;7.90;99.90;;;;;;5017305;28;19964;-87
2023/12/18 01:48:21;;;;;;;;;;;7.90;99.90;;;;;;5036971;28;19932;-87
2023/12/18 01:50:47;;;;;;;;;;;7.90;99.90;;;;;;5030374;28;19932;-88
2023/12/18 01:53:13;;;;;;;;;;;7.90;99.90;;;;;;5061127;28;20265;-88
2023/12/18 01:55:39;;;;;;;;;;;7.90;99.90;;;;;;5025160;28;20313;-88
2023/12/18 01:58:05;;;;;;;;;;;7.80;99.90;;;;;;5023500;28;19931;-87
2023/12/18 02:00:30;;;;;;;;;;;7.90;99.90;;;;;;5048796;28;19927;-87
2023/12/18 02:02:56;;;;;;;;;;;7.90;99.90;;;;;;5045063;28;19927;-87
2023/12/18 02:05:21;;;;;;;;;;;7.90;99.90;;;;;;5032519;28;20106;-88
2023/12/18 02:07:47;;;;;;;;;;;7.90;99.90;;;;;;5036745;28;20026;-88
2023/12/18 02:10:13;;;;;;;;;;;7.90;99.90;;;;;;5030355;28;19932;-88
2023/12/18 02:12:38;;;;;;;;;;;7.90;99.90;;;;;;5044075;28;19920;-88
2023/12/18 02:15:04;;;;;;;;;;;7.90;99.90;;;;;;5054012;28;19939;-87
2023/12/18 02:17:30;;;;;;;;;;;7.90;99.90;;;;;;5019566;28;19959;-87
2023/12/18 02:20:06;;;;;;;;;;;7.90;99.90;;;;;;5007505;28;20351;-87
2023/12/18 02:23:04;;;;;;;;;;;7.80;99.90;;;;;;5039255;28;19956;-88
2023/12/18 02:25:29;;;;;;;;;;;7.90;99.90;;;;;;4984101;28;19951;-87
2023/12/18 02:27:55;;;;;;;;;;;7.90;99.90;;;;;;5042958;28;20381;-84
2023/12/18 02:30:24;;;;;;;;;;;7.90;99.90;;;;;;5059905;28;19937;-88
2023/12/18 02:32:50;;;;;;;;;;;7.90;99.90;;;;;;5027626;28;20035;-87
2023/12/18 02:35:16;;;;;;;;;;;7.90;99.90;;;;;;5044238;28;19925;-87
2023/12/18 02:37:41;;;;;;;;;;;7.90;99.90;;;;;;5027424;28;19924;-88
2023/12/18 02:40:07;;;;;;;;;;;7.90;99.90;;;;;;5052205;28;20248;-88
2023/12/18 02:42:32;;;;;;;;;;;7.90;99.90;;;;;;5008546;28;19932;-88
2023/12/18 02:44:58;;;;;;;;;;;7.90;99.90;;;;;;5026824;28;19979;-88
2023/12/18 02:47:24;;;;;;;;;;;7.90;99.90;;;;;;5014695;28;19921;-87
2023/12/18 02:49:49;;;;;;;;;;;7.90;99.90;;;;;;5026071;28;20353;-86
2023/12/18 02:52:15;;;;;;;;;;;7.90;99.90;;;;;;5042211;28;19973;-90
2023/12/18 02:54:41;;;;;;;;;;;7.90;99.90;;;;;;5047910;28;19990;-88
2023/12/18 02:57:06;;;;;;;;;;;7.90;99.90;;;;;;5056138;28;19921;-84
2023/12/18 02:59:32;;;;;;;;;;;7.90;99.90;;;;;;5041441;28;20353;-88
2023/12/18 03:01:58;;;;;;;;;;;7.90;99.90;;;;;;5057210;28;20463;-87
2023/12/18 03:04:23;;;;;;;;;;;7.90;99.90;;;;;;5054326;28;19935;-89
2023/12/18 03:06:49;;;;;;;;;;;7.90;99.90;;;;;;5041250;28;19964;-87
2023/12/18 03:09:15;;;;;;;;;;;7.90;99.90;;;;;;5032786;28;19920;-88
2023/12/18 03:11:41;;;;;;;;;;;7.90;99.90;;;;;;5019308;28;19924;-87
2023/12/18 03:14:07;;;;;;;;;;;7.90;99.90;;;;;;5027224;28;19927;-87
2023/12/18 03:16:32;;;;;;;;;;;7.90;99.90;;;;;;5030616;28;19924;-86
2023/12/18 03:18:58;;;;;;;;;;;7.90;99.90;;;;;;5031427;28;19931;-88
2023/12/18 03:21:23;;;;;;;;;;;7.90;99.90;;;;;;5014520;28;19970;-88
2023/12/18 03:23:49;;;;;;;;;;;7.50;99.90;;;;;;5032773;28;19935;-86
2023/12/18 03:26:14;;;;;;;;;;;8.00;99.90;;;;;;5025443;28;19998;-88
2023/12/18 03:28:40;;;;;;;;;;;8.00;99.90;;;;;;5023162;28;20013;-87
2023/12/18 03:31:06;;;;;;;;;;;8.00;99.90;;;;;;5028010;28;19925;-86
2023/12/18 03:33:31;;;;;;;;;;;8.00;99.90;;;;;;5021340;28;19970;-90
2023/12/18 03:35:57;;;;;;;;;;;8.00;99.90;;;;;;5080281;28;19929;-88
2023/12/18 03:38:24;;;;;;;;;;;8.00;99.90;;;;;;5071348;28;20246;-86
2023/12/18 03:40:50;;;;;;;;;;;8.00;99.90;;;;;;5070608;28;20006;-87
2023/12/18 03:43:15;;;;;;;;;;;8.00;99.90;;;;;;5057027;28;20392;-87
2023/12/18 03:45:41;;;;;;;;;;;8.00;99.90;;;;;;5033734;28;19924;-86
2023/12/18 03:48:07;;;;;;;;;;;8.70;99.90;;;;;;5072810;28;19920;-87
2023/12/18 03:50:32;;;;;;;;;;;8.00;99.90;;;;;;5073883;28;19928;-86
2023/12/18 03:52:58;;;;;;;;;;;8.00;99.90;;;;;;5076723;28;20276;-85
2023/12/18 03:55:24;;;;;;;;;;;8.00;99.90;;;;;;5089672;28;19931;-86
2023/12/18 03:57:50;;;;;;;;;;;8.00;99.90;;;;;;5031813;28;19962;-87
2023/12/18 04:00:15;;;;;;;;;;;8.00;99.90;;;;;;5033549;28;19920;-86
2023/12/18 04:02:41;;;;;;;;;;;8.00;99.90;;;;;;5073860;28;20253;-88
2023/12/18 04:05:07;;;;;;;;;;;8.00;99.90;;;;;;5069114;28;20026;-86
2023/12/18 04:07:33;;;;;;;;;;;8.10;99.90;;;;;;5068295;28;20419;-87
2023/12/18 04:09:58;;;;;;;;;;;8.10;99.90;;;;;;5060342;28;20302;-87
2023/12/18 04:12:24;;;;;;;;;;;8.10;99.90;;;;;;5036281;28;19920;-86
2023/12/18 04:14:49;;;;;;;;;;;8.10;99.90;;;;;;5087942;28;19928;-87
2023/12/18 04:17:15;;;;;;;;;;;8.10;99.90;;;;;;5061500;28;19959;-88
2023/12/18 04:19:40;;;;;;;;;;;8.10;99.90;;;;;;5055780;28;19931;-84
2023/12/18 04:22:06;;;;;;;;;;;8.10;99.90;;;;;;5077977;28;20160;-84
2023/12/18 04:24:32;;;;;;;;;;;8.00;99.90;;;;;;5055995;28;19924;-84
2023/12/18 04:26:57;;;;;;;;;;;8.10;99.90;;;;;;5059727;28;20565;-83
2023/12/18 04:29:23;;;;;;;;;;;8.10;99.90;;;;;;5056170;28;20016;-85
2023/12/18 04:31:51;;;;;;;;;;;8.10;99.90;;;;;;5059798;28;20010;-87
2023/12/18 04:34:17;;;;;;;;;;;8.10;99.90;;;;;;5037208;28;19920;-85
2023/12/18 04:36:43;;;;;;;;;;;8.10;99.90;;;;;;5054320;28;19935;-86
2023/12/18 04:39:12;;;;;;;;;;;8.10;99.90;;;;;;5051063;28;20023;-85
2023/12/18 04:41:37;;;;;;;;;;;8.10;99.90;;;;;;5037984;28;19924;-83
2023/12/18 04:44:05;;;;;;;;;;;8.10;99.90;;;;;;5025524;28;20383;-85
2023/12/18 04:46:35;;;;;;;;;;;8.10;99.90;;;;;;5043458;28;19956;-83
2023/12/18 04:49:01;;;;;;;;;;;8.10;99.90;;;;;;5018006;28;19932;-85
2023/12/18 04:51:26;;;;;;;;;;;8.10;99.90;;;;;;5022330;28;19920;-84
2023/12/18 04:53:52;;;;;;;;;;;8.10;99.90;;;;;;5038599;28;20030;-86
2023/12/18 04:56:17;;;;;;;;;;;8.10;99.90;;;;;;5015958;28;19936;-83
2023/12/18 04:58:43;;;;;;;;;;;8.20;99.90;;;;;;5048590;28;19931;-84
2023/12/18 05:01:09;;;;;;;;;;;8.10;99.90;;;;;;5036296;28;20329;-83
2023/12/18 05:03:35;;;;;;;;;;;8.10;99.90;;;;;;5049431;28;19921;-86
2023/12/18 05:06:00;;;;;;;;;;;8.10;99.90;;;;;;5037378;28;19932;-85
2023/12/18 05:08:26;;;;;;;;;;;8.10;99.90;;;;;;5018369;28;19928;-85
2023/12/18 05:10:52;;;;;;;;;;;8.20;99.90;;;;;;5034850;28;20070;-85
2023/12/18 05:13:17;;;;;;;;;;;8.10;99.90;;;;;;5040763;28;20357;-84
2023/12/18 05:15:43;;;;;;;;;;;8.10;99.90;;;;;;5024304;28;19920;-84
2023/12/18 05:18:09;;;;;;;;;;;8.10;99.90;;;;;;5055298;28;19936;-84
2023/12/18 05:20:34;;;;;;;;;;;8.10;99.90;;;;;;5037163;28;19978;-83
2023/12/18 05:23:00;;;;;;;;;;;8.10;99.90;;;;;;5019140;28;19924;-83
2023/12/18 05:25:25;;;;;;;;;;;8.10;99.90;;;;;;5016249;28;19962;-84
2023/12/18 05:27:51;;;;;;;;;;;8.10;99.90;;;;;;5013140;28;19925;-84
2023/12/18 05:30:17;;;;;;;;;;;8.20;99.90;;;;;;5035892;28;19999;-86
2023/12/18 05:32:42;;;;;;;;;;;8.20;99.90;;;;;;5046937;28;19925;-87
2023/12/18 05:35:08;;;;;;;;;;;8.20;99.90;;;;;;5015367;28;19931;-86
2023/12/18 05:37:34;;;;;;;;;;;8.20;99.90;;;;;;5008593;28;19978;-88
2023/12/18 05:39:59;;;;;;;;;;;7.60;99.90;;;;;;5033082;28;19971;-85
2023/12/18 05:42:25;;;;;;;;;;;8.20;99.90;;;;;;5034327;28;20422;-86
2023/12/18 05:44:50;;;;;;;;;;;8.20;99.90;;;;;;5019221;28;19929;-85
2023/12/18 05:47:16;;;;;;;;;;;8.20;99.90;;;;;;5051534;28;19924;-85
2023/12/18 05:49:42;;;;;;;;;;;8.20;99.90;;;;;;5033325;28;19974;-87
2023/12/18 05:52:07;;;;;;;;;;;8.20;99.90;;;;;;5021081;28;19936;-85
2023/12/18 05:54:33;;;;;;;;;;;8.20;99.90;;;;;;5022308;28;20031;-86
2023/12/18 05:56:59;;;;;;;;;;;8.20;99.90;;;;;;5014948;28;19926;-86
2023/12/18 05:59:24;;;;;;;;;;;8.20;99.90;;;;;;5011819;28;19925;-85
2023/12/18 06:01:50;;;;;;;;;;;8.30;99.90;;;;;;5029681;28;20019;-86
2023/12/18 06:04:16;;;;;;;;;;;8.30;99.90;;;;;;5020966;28;19920;-84
2023/12/18 06:06:41;;;;;;;;;;;8.20;99.90;;;;;;5035406;28;19921;-85
2023/12/18 06:09:19;;;;;;;;;;;8.30;99.90;;;;;;5039613;28;20386;-86
2023/12/18 06:11:45;;;;;;;;;;;8.30;99.90;;;;;;5049715;28;20011;-85
2023/12/18 06:14:10;;;;;;;;;;;8.30;99.90;;;;;;5017570;28;19951;-85
2023/12/18 06:16:39;;;;;;;;;;;8.00;99.90;;;;;;5017547;28;19932;-85
2023/12/18 06:19:05;;;;;;;;;;;8.40;99.90;;;;;;5035438;28;19927;-88
2023/12/18 06:21:30;;;;;;;;;;;8.20;99.90;;;;;;5041711;28;19920;-87
2023/12/18 06:23:56;;;;;;;;;;;8.20;99.90;;;;;;5037434;28;19956;-87
2023/12/18 06:26:22;;;;;;;;;;;8.30;99.90;;;;;;5020102;28;19924;-87
2023/12/18 06:28:47;;;;;;;;;;;8.30;99.90;;;;;;5012425;28;19924;-86
2023/12/18 06:31:13;;;;;;;;;;;8.30;99.90;;;;;;5018506;28;19921;-87
2023/12/18 06:33:38;;;;;;;;;;;8.30;99.90;;;;;;5028657;28;20366;-86
2023/12/18 06:36:04;;;;;;;;;;;8.30;99.90;;;;;;5049722;28;19925;-88
2023/12/18 06:38:30;;;;;;;;;;;8.30;99.90;;;;;;5013192;28;19924;-89
2023/12/18 06:40:55;;;;;;;;;;;8.30;99.90;;;;;;5020285;28;19924;-87
2023/12/18 06:43:21;;;;;;;;;;;8.30;99.90;;;;;;5029953;28;20549;-87
2023/12/18 06:45:49;;;;;;;;;;;8.30;99.90;;;;;;5017462;28;21031;-87
2023/12/18 06:48:15;;;;;;;;;;;8.30;99.90;;;;;;5032251;28;20245;-89
2023/12/18 06:50:41;;;;;;;;;;;8.30;99.90;;;;;;5018229;28;19921;-86
2023/12/18 06:53:07;;;;;;;;;;;8.30;99.90;;;;;;5011587;28;20227;-86
2023/12/18 06:55:34;;;;;;;;;;;8.30;99.90;;;;;;5016097;28;20015;-86
2023/12/18 06:58:00;;;;;;;;;;;8.30;99.90;;;;;;5024503;28;19939;-86
2023/12/18 07:00:25;;;;;;;;;;;8.20;99.90;;;;;;5028354;28;19951;-87
2023/12/18 07:02:51;;;;;;;;;;;8.20;99.90;;;;;;5015040;28;20106;-85
2023/12/18 07:05:16;;;;;;;;;;;8.20;99.90;;;;;;5039527;28;20019;-86
2023/12/18 07:07:42;;;;;;;;;;;8.30;99.90;;;;;;5043022;28;19960;-90
2023/12/18 07:10:08;;;;;;;;;;;8.20;99.90;;;;;;5016336;28;19924;-86
2023/12/18 07:12:34;;;;;;;;;;;8.20;99.90;;;;;;5031263;28;20231;-86
2023/12/18 07:14:59;;;;;;;;;;;8.20;99.90;;;;;;5017119;28;19924;-86
2023/12/18 07:17:25;;;;;;;;;;;8.20;99.90;;;;;;5012727;28;19966;-87
2023/12/18 07:19:51;;;;;;;;;;;8.20;99.90;;;;;;5032273;28;19935;-87
2023/12/18 07:22:17;;;;;;;;;;;8.20;99.90;;;;;;5044386;28;20237;-86
2023/12/18 07:24:42;;;;;;;;;;;8.20;99.90;;;;;;5045862;28;19935;-87
2023/12/18 07:27:08;;;;;;;;;;;8.20;99.90;;;;;;5026585;28;19932;-85
2023/12/18 07:29:33;;;;;;;;;;;8.20;99.90;;;;;;5029618;28;19931;-89
2023/12/18 07:31:59;;;;;;;;;;;8.20;99.90;;;;;;5033472;28;20312;-84
2023/12/18 07:34:25;;;;;;;;;;;8.20;99.90;;;;;;5031966;28;20366;-84
2023/12/18 07:36:51;;;;;;;;;;;8.20;99.90;;;;;;5059493;28;19924;-84
2023/12/18 07:39:17;;;;;;;;;;;8.20;99.90;;;;;;5041137;28;19978;-86
2023/12/18 07:41:42;;;;;;;;;;;8.20;99.90;;;;;;5065779;28;19967;-84
2023/12/18 07:44:08;;;;;;;;;;;8.30;99.90;;;;;;5036771;28;19924;-83
2023/12/18 07:46:34;;;;;;;;;;;8.20;99.90;;;;;;5051140;28;19930;-85
2023/12/18 07:48:59;;;;;;;;;;;8.20;99.90;;;;;;5052801;28;20379;-86
2023/12/18 07:51:25;;;;;;;;;;;8.20;99.90;;;;;;5049586;28;19920;-86
2023/12/18 07:53:51;;;;;;;;;;;8.20;99.90;;;;;;5051773;28;19928;-87
2023/12/18 07:56:16;;;;;;;;;;;8.30;99.90;;;;;;5084863;28;19919;-89
2023/12/18 07:58:42;;;;;;;;;;;8.30;99.90;;;;;;5037943;28;19920;-85
2023/12/18 08:01:07;;;;;;;;;;;8.20;99.90;;;;;;5038364;28;19924;-86
2023/12/18 08:03:33;;;;;;;;;;;8.30;99.90;;;;;;5055503;28;19973;-86
2023/12/18 08:05:59;;;;;;;;;;;8.30;99.90;;;;;;5063019;28;20272;-86
2023/12/18 08:08:24;;;;;;;;;;;8.30;99.90;;;;;;5042948;28;20447;-85
2023/12/18 08:10:50;;;;;;;;;;;8.30;99.90;;;;;;5064690;28;19971;-87
2023/12/18 08:13:16;;;;;;;;;;;8.30;99.90;;;;;;5072148;28;19920;-87
2023/12/18 08:15:41;;;;;;;;;;;8.30;99.90;;;;;;5044088;28;19999;-85
2023/12/18 08:18:08;;;;;;;;;;;8.40;99.90;;;;;;5046741;28;19975;-87
2023/12/18 08:20:33;;;;;;;;;;;8.30;99.90;;;;;;5038106;28;20007;-84
2023/12/18 08:22:59;;;;;;;;;;;8.40;99.90;;;;;;5060426;28;20431;-88
2023/12/18 08:25:25;;;;;;;;;;;8.40;99.90;;;;;;5063168;28;19924;-86
2023/12/18 08:27:50;;;;;;;;;;;8.30;99.90;;;;;;5079604;28;19927;-89
2023/12/18 08:30:16;;;;;;;;;;;8.30;99.90;;;;;;5039744;28;19920;-90
2023/12/18 08:32:42;;;;;;;;;;;8.30;99.90;;;;;;5036384;28;20058;-89
2023/12/18 08:35:08;;;;;;;;;;;8.30;99.90;;;;;;5076997;28;19935;-85
2023/12/18 08:37:34;;;;;;;;;;;8.40;99.90;;;;;;5059112;28;19920;-87
2023/12/18 08:39:59;;;;;;;;;;;8.40;99.90;;;;;;5042084;28;19924;-85
2023/12/18 08:42:25;;;;;;;;;;;8.40;99.90;;;;;;5057275;28;20645;-85
2023/12/18 08:44:51;;;;;;;;;;;7.20;99.90;;;;;;5073930;28;19924;-89
2023/12/18 08:47:16;;;;;;;;;;;8.40;99.90;;;;;;5054557;28;20379;-87
2023/12/18 08:49:42;;;;;;;;;;;8.40;99.90;;;;;;5054031;28;20580;-86
2023/12/18 08:52:08;;;;;;;;;;;8.40;99.90;;;;;;5046949;28;20011;-86
2023/12/18 08:54:33;;;;;;;;;;;8.40;99.90;;;;;;5099853;28;20232;-85
2023/12/18 08:56:59;;;;;;;;;;;8.40;99.90;;;;;;5039705;28;19928;-85
2023/12/18 08:59:25;;;;;;;;;;;8.50;99.90;;;;;;5082108;28;20406;-85
2023/12/18 09:01:51;;;;;;;;;;;8.50;99.90;;;;;;5043026;28;20020;-85
2023/12/18 09:04:17;;;;;;;;;;;8.50;99.90;;;;;;5054570;28;19959;-87
2023/12/18 09:06:42;;;;;;;;;;;8.50;99.90;;;;;;5057539;28;19950;-86
2023/12/18 09:09:08;;;;;;;;;;;8.60;99.90;;;;;;5054099;28;19971;-85
2023/12/18 09:11:35;;;;;;;;;;;8.40;99.90;;;;;;5057606;28;20375;-87
2023/12/18 09:14:00;;;;;;;;;;;8.60;99.90;;;;;;5067723;28;20424;-85
2023/12/18 09:16:26;;;;;;;;;;;8.60;99.90;;;;;;5065355;28;20019;-90
2023/12/18 09:18:52;;;;;;;;;;;8.70;99.90;;;;;;5058099;28;20625;-85
2023/12/18 09:21:18;;;;;;;;;;;8.70;99.90;;;;;;5058191;28;20268;-88
2023/12/18 09:23:45;;;;;;;;;;;8.40;99.90;;;;;;5058274;28;19931;-86
2023/12/18 09:26:14;;;;;;;;;;;9.30;99.90;;;;;;5073703;28;19939;-89
2023/12/18 09:28:40;;;;;;;;;;;8.90;99.90;;;;;;5039241;28;20650;-86
2023/12/18 09:31:06;;;;;;;;;;;;;;;;;;5056768;28;19924;-86
2023/12/18 09:33:33;;;;;;;;;;;;;;;;;;5069738;28;20006;-87
2023/12/18 09:35:59;;;;;;;;;;;8.90;99.90;;;;;;5067737;28;19931;-86
2023/12/18 09:38:25;;;;;;;;;;;8.90;99.90;;;;;;5058462;28;20015;-86
2023/12/18 09:40:50;;;;;;;;;;;10.20;99.90;;;;;;5073281;28;19920;-86
2023/12/18 09:43:17;;;;;;;;;;;8.90;99.90;;;;;;5053447;28;19981;-86
2023/12/18 09:45:46;;;;;;;;;;;8.80;99.90;;;;;;5056971;28;19936;-88
2023/12/18 09:48:12;;;;;;;;;;;8.90;99.90;;;;;;5058627;28;19931;-86
2023/12/18 09:50:46;;;;;;;;;;;8.80;99.90;;;;;;5053099;28;20252;-87
2023/12/18 09:53:21;;;;;;;;;;;8.80;99.90;;;;;;5066819;28;19924;-88
2023/12/18 09:55:51;;;;;;;;;;;9.20;99.90;;;;;;5050490;28;19932;-85
2023/12/18 09:58:18;;;;;;;;;;;9.00;99.90;;;;;;5035287;28;19973;-85
2023/12/18 10:00:44;;;;;;;;;;;8.80;99.90;;;;;;5044644;28;19920;-88
2023/12/18 10:03:15;;;;;;;;;;;8.50;99.90;;;;;;5060014;28;19920;-85
2023/12/18 10:05:45;;;;;;;;;;;9.20;99.90;;;;;;5039444;28;19924;-90
2023/12/18 10:08:14;;;;;;;;;;;8.80;99.90;;;;;;5056695;28;20305;-88
2023/12/18 10:10:43;;;;;;;;;;;9.00;99.90;;;;;;5058450;28;19927;-88
2023/12/18 10:13:14;;;;;;;;;;;8.80;99.90;;;;;;5049229;28;19971;-87
2023/12/18 10:15:42;;;;;;;;;;;8.80;99.90;;;;;;5044499;28;19924;-90
2023/12/18 10:18:09;;;;;;;;;;;8.80;99.90;;;;;;5054517;28;20010;-86
2023/12/18 10:20:35;;;;;;;;;;;8.80;99.90;;;;;;5069069;28;19925;-84
2023/12/18 10:23:01;;;;;;;;;;;8.80;99.90;;;;;;5048699;28;20019;-86
2023/12/18 10:25:27;;;;;;;;;;;8.80;99.90;;;;;;5075094;28;19979;-86
2023/12/18 10:27:55;;;;;;;;;;;8.80;99.90;;;;;;5073405;28;19924;-87
2023/12/18 10:30:25;;;;;;;;;;;8.80;99.90;;;;;;5057591;28;20634;-87
2023/12/18 10:32:51;;;;;;;;;;;8.90;99.90;;;;;;5072456;28;20256;-90
2023/12/18 10:35:17;;;;;;;;;;;9.00;99.90;;;;;;5038144;28;19925;-88
2023/12/18 10:37:48;;;;;;;;;;;8.80;99.90;;;;;;5035855;28;19927;-86
2023/12/18 10:40:15;;;;;;;;;;;8.80;99.90;;;;;;5069080;28;20367;-87
2023/12/18 10:42:45;;;;;;;;;;;8.90;99.90;;;;;;5064100;28;19927;-85
2023/12/18 10:45:11;;;;;;;;;;;8.80;99.90;;;;;;5068890;28;19928;-86
2023/12/18 10:47:37;;;;;;;;;;;8.80;99.90;;;;;;5069365;28;19966;-86
2023/12/18 10:50:04;;;;;;;;;;;8.80;99.90;;;;;;5052562;28;19920;-85
2023/12/18 10:52:30;;;;;;;;;;;8.90;99.90;;;;;;5029168;28;20368;-88
2023/12/18 10:55:10;;;;;;;;;;;8.80;99.90;;;;;;5069306;28;20073;-90
2023/12/18 10:57:38;;;;;;;;;;;8.80;99.90;;;;;;5061358;28;20256;-86
2023/12/18 11:00:04;;;;;;;;;;;8.80;99.90;;;;;;5054066;28;19971;-87
2023/12/18 11:02:31;;;;;;;;;;;8.70;99.90;;;;;;5057697;28;20396;-86
2023/12/18 11:04:59;;;;;;;;;;;8.80;99.90;;;;;;5078354;28;19924;-86
2023/12/18 11:07:25;;;;;;;;;;;8.70;99.90;;;;;;5052910;28;19924;-86
2023/12/18 11:09:52;;;;;;;;;;;8.70;99.90;;;;;;5044364;28;19959;-85
2023/12/18 11:12:18;;;;;;;;;;;8.90;99.90;;;;;;5060597;28;20272;-86
2023/12/18 11:14:44;;;;;;;;;;;8.70;99.90;;;;;;5038812;28;20011;-86
2023/12/18 11:17:32;;;;;;;;;;;8.70;99.90;;;;;;5060313;28;20395;-87
2023/12/18 11:20:06;;;;;;;;;;;8.70;99.90;;;;;;5045126;28;19928;-85
2023/12/18 11:22:38;;;;;;;;;;;8.70;99.90;;;;;;5049313;28;19943;-85
2023/12/18 11:25:04;;;;;;;;;;;8.70;99.90;;;;;;5050186;28;20294;-86
2023/12/18 11:27:30;;;;;;;;;;;8.70;99.90;;;;;;5035343;28;19957;-88
2023/12/18 11:29:56;;;;;;;;;;;8.70;99.90;;;;;;5037355;28;19924;-86
2023/12/18 11:32:41;;;;;;;;;;;8.70;99.90;;;;;;5030692;28;19925;-87
2023/12/18 11:35:11;;;;;;;;;;;8.90;99.90;;;;;;5038002;28;19955;-86
2023/12/18 11:37:50;;;;;;;;;;;8.70;99.90;;;;;;5051713;28;19931;-85
2023/12/18 11:40:31;;;;;;;;;;;8.70;99.90;;;;;;5037346;28;20386;-86
2023/12/18 11:42:57;;;;;;;;;;;8.70;99.90;;;;;;5033303;28;19979;-86
2023/12/18 11:45:23;;;;;;;;;;;8.70;99.90;;;;;;5036681;28;19964;-87
2023/12/18 11:47:52;;;;;;;;;;;8.70;99.90;;;;;;5065131;28;19921;-86
2023/12/18 11:50:25;;;;;;;;;;;8.70;99.90;;;;;;5024347;28;19964;-86
2023/12/18 11:52:55;;;;;;;;;;;8.80;99.90;;;;;;5020235;28;20248;-85
2023/12/18 11:55:39;;;;;;;;;;;8.80;99.90;;;;;;5028437;28;19924;-85
2023/12/18 11:58:06;;;;;;;;;;;8.80;99.90;;;;;;5016219;28;20332;-87
2023/12/18 12:00:32;;;;;;;;;;;8.80;99.90;;;;;;5035933;28;19927;-90
2023/12/18 12:02:58;;;;;;;;;;;8.80;99.90;;;;;;5043824;28;20011;-89
2023/12/18 12:05:27;;;;;;;;;;;8.80;99.90;;;;;;5037950;28;20019;-86
2023/12/18 12:07:52;;;;;;;;;;;8.80;99.90;;;;;;5052085;28;19992;-85
2023/12/18 12:10:18;;;;;;;;;;;8.80;99.90;;;;;;5028558;28;19960;-86
2023/12/18 12:12:44;;;;;;;;;;;8.90;99.90;;;;;;5033384;28;19950;-85
2023/12/18 12:15:10;;;;;;;;;;;8.30;99.90;;;;;;5011616;28;19925;-87
2023/12/18 12:17:36;;;;;;;;;;;8.90;99.90;;;;;;5031345;28;19921;-85
2023/12/18 12:20:07;;;;;;;;;;;8.50;99.90;;;;;;5024396;28;20047;-90
2023/12/18 12:22:33;;;;;;;;;;;8.90;99.90;;;;;;5027795;28;19921;-89
2023/12/18 12:24:59;;;;;;;;;;;8.90;99.90;;;;;;5020827;28;19925;-86
2023/12/18 12:27:25;;;;;;;;;;;9.70;99.90;;;;;;5018759;28;19928;-85
2023/12/18 12:29:50;;;;;;;;;;;8.80;99.90;;;;;;5036539;28;19924;-89
2023/12/18 12:32:18;;;;;;;;;;;8.90;99.90;;;;;;5044495;28;20396;-86
2023/12/18 12:34:47;;;;;;;;;;;9.10;99.90;;;;;;5079717;28;19946;-87
2023/12/18 12:37:13;;;;;;;;;;;9.00;99.90;;;;;;5050570;28;19975;-91
2023/12/18 12:39:39;;;;;;;;;;;;;;;;;;5043842;28;20172;-85
2023/12/18 12:42:05;;;;;;;;;;;8.90;99.90;;;;;;5047039;28;19924;-86
2023/12/18 12:44:31;;;;;;;;;;;9.00;99.90;;;;;;5041273;28;19920;-86
2023/12/18 12:46:56;;;;;;;;;;;9.00;99.90;;;;;;5034545;28;20258;-85
2023/12/18 12:49:22;;;;;;;;;;;9.00;99.90;;;;;;5038366;28;19920;-86
2023/12/18 12:51:48;;;;;;;;;;;9.00;99.90;;;;;;5027348;28;20408;-86
2023/12/18 12:54:14;;;;;;;;;;;9.00;99.90;;;;;;5047480;28;19971;-86
2023/12/18 12:56:40;;;;;;;;;;;9.00;99.90;;;;;;5041487;28;19935;-86
2023/12/18 12:59:06;;;;;;;;;;;9.10;99.90;;;;;;5062035;28;19924;-86
2023/12/18 13:01:32;;;;;;;;;;;9.10;99.90;;;;;;5073632;28;20027;-86
2023/12/18 13:03:57;;;;;;;;;;;9.00;99.90;;;;;;5058983;28;19967;-86
2023/12/18 13:06:23;;;;;;;;;;;9.00;99.90;;;;;;5064395;28;20437;-85
2023/12/18 13:08:49;;;;;;;;;;;9.00;99.90;;;;;;5055817;28;20517;-88
2023/12/18 13:11:16;;;;;;;;;;;9.00;99.90;;;;;;5071926;28;19920;-86
2023/12/18 13:13:42;;;;;;;;;;;9.00;99.90;;;;;;5037171;28;19931;-89
2023/12/18 13:16:08;;;;;;;;;;;9.00;99.90;;;;;;5040875;28;19960;-89
2023/12/18 13:18:34;;;;;;;;;;;9.00;99.90;;;;;;5042912;28;19959;-87
2023/12/18 13:21:01;;;;;;;;;;;9.00;99.90;;;;;;5066254;28;19955;-89
2023/12/18 13:23:26;;;;;;;;;;;9.00;99.90;;;;;;5060479;28;20454;-89
2023/12/18 13:25:52;;;;;;;;;;;9.00;99.90;;;;;;5075012;28;19940;-87
2023/12/18 13:28:17;;;;;;;;;;;9.00;99.90;;;;;;5027399;28;19931;-87
2023/12/18 13:30:43;;;;;;;;;;;9.00;99.90;;;;;;5066087;28;20053;-85
2023/12/18 13:33:09;;;;;;;;;;;9.00;99.90;;;;;;5059005;28;19974;-85
2023/12/18 13:35:34;;;;;;;;;;;9.00;99.90;;;;;;5065739;28;19924;-88
2023/12/18 13:38:00;;;;;;;;;;;9.00;99.90;;;;;;5072530;28;19920;-86
2023/12/18 13:40:27;;;;;;;;;;;9.00;99.90;;;;;;5056041;28;19908;-88
2023/12/18 13:42:53;;;;;;;;;;;9.00;99.90;;;;;;5076345;28;19931;-87
2023/12/18 13:45:19;;;;;;;;;;;9.00;99.90;;;;;;5052310;28;20004;-86
2023/12/18 13:47:45;;;;;;;;;;;9.00;99.90;;;;;;5048379;28;19932;-86
2023/12/18 13:50:11;;;;;;;;;;;9.00;99.90;;;;;;5052262;28;19921;-89
2023/12/18 13:52:37;;;;;;;;;;;9.00;99.90;;;;;;5065211;28;19928;-85
2023/12/18 13:55:02;;;;;;;;;;;9.00;99.90;;;;;;5055934;28;19928;-86
2023/12/18 13:57:28;;;;;;;;;;;9.00;99.90;;;;;;5066953;28;19981;-87
2023/12/18 13:59:53;;;;;;;;;;;9.00;99.90;;;;;;5059443;28;19920;-87
2023/12/18 14:02:19;;;;;;;;;;;9.00;99.90;;;;;;5070608;28;20473;-85
2023/12/18 14:04:46;;;;;;;;;;;9.00;99.90;;;;;;5032182;28;19939;-89
2023/12/18 14:07:12;;;;;;;;;;;9.00;99.90;;;;;;5036754;28;19963;-84
2023/12/18 14:09:38;;;;;;;;;;;9.00;99.90;;;;;;5048182;28;20279;-86
2023/12/18 14:12:04;;;;;;;;;;;9.00;99.90;;;;;;5065586;28;20074;-87
2023/12/18 14:14:30;;;;;;;;;;;9.00;99.90;;;;;;5036237;28;19924;-85
2023/12/18 14:16:56;;;;;;;;;;;9.00;99.90;;;;;;5034615;28;19927;-87
2023/12/18 14:19:21;;;;;;;;;;;9.00;99.90;;;;;;5055171;28;20610;-84
2023/12/18 14:21:47;;;;;;;;;;;8.90;99.90;;;;;;5039086;28;19935;-88
2023/12/18 14:24:12;;;;;;;;;;;8.90;99.90;;;;;;5062664;28;19931;-86
2023/12/18 14:26:38;;;;;;;;;;;8.90;99.90;;;;;;5048070;28;19928;-88